Time;durP1;ratioP1;P1;durP2;ratioP2;P2;SDS_P1;SDS_P2;PMS_P1;PMS_P2;Temp;Humidity;BMP_temperature;BMP_pressure;BME280_temperature;BME280_humidity;BME280_pressure;Samples;Min_cycle;Max_cycle;Signal;HPM_P1;HPM_P2
2023/09/28 00:00:45;;;;;;;10.85;6.72;;;;;;;;;;2088415;28;20060;-72
2023/09/28 00:02:07;;;;;;;10.23;6.93;;;;;;;;;;2088704;28;20072;-72
2023/09/28 00:03:28;;;;;;;12.80;6.63;;;;;;;;;;2087053;28;20032;-71
2023/09/28 00:04:48;;;;;;;10.13;6.80;;;;;;;;;;2087027;28;20461;-73
2023/09/28 00:06:09;;;;;;;13.20;7.18;;;;;;;;;;2087825;28;20037;-72
2023/09/28 00:07:30;;;;;;;12.05;6.50;;;;;;;;;;2087693;28;20021;-71
2023/09/28 00:08:51;;;;;;;10.60;6.65;;;;;;;;;;2085930;28;20124;-73
2023/09/28 00:10:13;;;;;;;9.80;6.63;;;;;;;;;;2089449;28;20040;-73
2023/09/28 00:11:34;;;;;;;9.73;6.15;;;;;;;;;;2088141;28;20037;-72
2023/09/28 00:12:55;;;;;;;8.88;6.43;;;;;;;;;;2089077;28;20512;-72
2023/09/28 00:14:16;;;;;;;13.10;6.90;;;;;;;;;;2095018;28;20036;-72
2023/09/28 00:15:37;;;;;;;11.60;6.45;;;;;;;;;;2093415;28;20032;-75
2023/09/28 00:16:58;;;;;;;10.90;6.47;;;;;;;;;;2075788;28;20112;-72
2023/09/28 00:18:20;;;;;;;10.77;7.10;;;;;;;;;;2087705;28;20033;-73
2023/09/28 00:19:41;;;;;;;9.80;6.72;;;;;;;;;;2087141;28;20025;-70
2023/09/28 00:21:02;;;;;;;10.77;6.70;;;;;;;;;;2084938;28;20040;-71
2023/09/28 00:22:23;;;;;;;11.48;6.25;;;;;;;;;;2104391;28;20032;-72
2023/09/28 00:23:44;;;;;;;11.07;6.38;;;;;;;;;;2085831;28;20489;-71
2023/09/28 00:25:11;;;;;;;10.60;6.13;;;;;;;;;;2090469;28;20021;-72
2023/09/28 00:26:32;;;;;;;10.38;6.72;;;;;;;;;;2087988;28;20420;-71
2023/09/28 00:27:55;;;;;;;10.70;6.40;;;;;;;;;;2088402;28;20029;-71
2023/09/28 00:29:16;;;;;;;9.85;6.75;;;;;;;;;;2087893;28;20400;-71
2023/09/28 00:30:37;;;;;;;10.80;6.65;;;;;;;;;;2091083;28;20029;-74
2023/09/28 00:31:58;;;;;;;11.63;8.00;;;;;;;;;;2095255;28;20115;-74
2023/09/28 00:33:19;;;;;;;11.35;6.97;;;;;;;;;;2090282;28;20448;-74
2023/09/28 00:34:40;;;;;;;12.23;6.75;;;;;;;;;;2088160;28;20032;-74
2023/09/28 00:36:00;;;;;;;10.88;6.57;;;;;;;;;;2096329;28;20044;-75
2023/09/28 00:37:21;;;;;;;11.55;7.00;;;;;;;;;;2093251;28;20017;-75
2023/09/28 00:38:42;;;;;;;13.98;7.03;;;;;;;;;;2088026;28;20033;-75
2023/09/28 00:40:17;;;;;;;10.02;7.13;;;;;;;;;;2093755;28;20045;-75
2023/09/28 00:41:38;;;;;;;10.43;6.55;;;;;;;;;;2096084;28;20403;-75
2023/09/28 00:42:59;;;;;;;10.07;6.28;;;;;;;;;;2088437;28;20025;-75
2023/09/28 00:44:21;;;;;;;8.38;6.43;;;;;;;;;;2092193;28;20017;-75
2023/09/28 00:45:42;;;;;;;13.82;7.05;;;;;;;;;;2094447;28;20024;-75
2023/09/28 00:47:03;;;;;;;9.20;6.18;;;;;;;;;;2097598;28;20036;-75
2023/09/28 00:48:25;;;;;;;11.68;6.85;;;;;;;;;;2088076;28;20029;-75
2023/09/28 00:49:46;;;;;;;8.13;5.85;;;;;;;;;;2087484;28;20017;-75
2023/09/28 00:51:07;;;;;;;9.02;6.20;;;;;;;;;;2089056;28;20021;-75
2023/09/28 00:52:28;;;;;;;12.35;7.32;;;;;;;;;;2093706;28;20424;-74
2023/09/28 00:53:50;;;;;;;10.95;6.18;;;;;;;;;;2095903;28;20124;-75
2023/09/28 00:55:15;;;;;;;9.68;6.40;;;;;;;;;;2096906;28;20025;-75
2023/09/28 00:56:36;;;;;;;11.15;6.57;;;;;;;;;;2087447;28;20105;-75
2023/09/28 00:58:00;;;;;;;9.57;6.57;;;;;;;;;;2095665;28;20032;-75
2023/09/28 00:59:21;;;;;;;9.98;6.03;;;;;;;;;;2093408;28;20029;-73
2023/09/28 01:00:42;;;;;;;10.70;6.70;;;;;;;;;;2103923;28;20599;-73
2023/09/28 01:02:02;;;;;;;11.05;6.47;;;;;;;;;;2098918;28;20099;-75
2023/09/28 01:03:27;;;;;;;12.98;6.82;;;;;;;;;;2096969;28;20024;-74
2023/09/28 01:04:48;;;;;;;10.90;6.85;;;;;;;;;;2095896;28;20036;-74
2023/09/28 01:06:08;;;;;;;10.05;6.07;;;;;;;;;;2093516;28;20036;-74
2023/09/28 01:07:30;;;;;;;11.27;6.53;;;;;;;;;;2095952;28;20024;-75
2023/09/28 01:08:52;;;;;;;11.20;6.53;;;;;;;;;;2086459;28;20033;-75
2023/09/28 01:10:15;;;;;;;11.13;6.45;;;;;;;;;;2094450;28;20033;-75
2023/09/28 01:11:36;;;;;;;8.60;6.28;;;;;;;;;;2095178;28;20549;-74
2023/09/28 01:12:58;;;;;;;10.27;6.18;;;;;;;;;;2089028;28;20044;-75
2023/09/28 01:14:21;;;;;;;7.93;6.05;;;;;;;;;;2091765;28;20048;-73
2023/09/28 01:15:42;;;;;;;12.82;6.63;;;;;;;;;;2085365;28;20475;-73
2023/09/28 01:17:03;;;;;;;12.38;7.15;;;;;;;;;;2080790;28;20500;-73
2023/09/28 01:18:24;;;;;;;12.13;6.70;;;;;;;;;;2075816;28;20064;-75
2023/09/28 01:19:45;;;;;;;9.35;6.82;;;;;;;;;;2092796;28;20348;-75
2023/09/28 01:21:10;;;;;;;9.13;5.95;;;;;;;;;;2092545;28;20055;-75
2023/09/28 01:22:31;;;;;;;8.63;6.82;;;;;;;;;;2088173;28;20452;-74
2023/09/28 01:23:52;;;;;;;10.10;6.97;;;;;;;;;;2085357;28;20481;-75
2023/09/28 01:25:15;;;;;;;8.98;6.10;;;;;;;;;;2088256;28;20037;-75
2023/09/28 01:26:36;;;;;;;10.13;6.45;;;;;;;;;;2086040;28;20033;-75
2023/09/28 01:27:57;;;;;;;10.82;7.03;;;;;;;;;;2082825;28;20025;-74
2023/09/28 01:29:18;;;;;;;9.15;6.15;;;;;;;;;;2088277;28;20492;-74
2023/09/28 01:30:39;;;;;;;8.80;6.20;;;;;;;;;;2085706;28;20029;-74
2023/09/28 01:32:00;;;;;;;9.73;7.03;;;;;;;;;;2093477;28;20394;-75
2023/09/28 01:33:21;;;;;;;10.52;6.88;;;;;;;;;;2084113;28;20055;-74
2023/09/28 01:34:42;;;;;;;11.85;6.63;;;;;;;;;;2092690;28;20462;-75
2023/09/28 01:36:02;;;;;;;11.35;6.95;;;;;;;;;;2084665;28;20044;-74
2023/09/28 01:37:29;;;;;;;11.45;7.18;;;;;;;;;;2093374;28;20035;-74
2023/09/28 01:38:55;;;;;;;10.48;7.00;;;;;;;;;;2088082;28;20045;-74
2023/09/28 01:40:16;;;;;;;9.98;7.13;;;;;;;;;;2086524;28;20029;-77
2023/09/28 01:41:37;;;;;;;9.73;6.63;;;;;;;;;;2084764;28;20021;-77
2023/09/28 01:42:58;;;;;;;16.17;6.78;;;;;;;;;;2093710;28;20480;-77
2023/09/28 01:44:19;;;;;;;11.25;6.90;;;;;;;;;;2104046;28;20032;-78
2023/09/28 01:45:40;;;;;;;9.30;6.32;;;;;;;;;;2090125;28;20033;-78
2023/09/28 01:47:01;;;;;;;10.20;7.25;;;;;;;;;;2086445;28;20503;-78
2023/09/28 01:48:22;;;;;;;10.98;6.28;;;;;;;;;;2087487;28;20033;-78
2023/09/28 01:49:43;;;;;;;9.50;6.03;;;;;;;;;;2092113;28;20070;-79
2023/09/28 01:51:03;;;;;;;10.02;6.57;;;;;;;;;;2086103;28;20037;-78
2023/09/28 01:52:24;;;;;;;11.88;7.35;;;;;;;;;;2080550;28;20033;-78
2023/09/28 01:53:46;;;;;;;11.52;7.25;;;;;;;;;;2093462;28;20027;-79
2023/09/28 01:55:07;;;;;;;10.20;6.80;;;;;;;;;;2097876;28;20078;-78
2023/09/28 01:56:28;;;;;;;10.88;6.45;;;;;;;;;;2095992;28;20556;-78
2023/09/28 01:57:49;;;;;;;11.73;7.57;;;;;;;;;;2088498;28;20029;-77
2023/09/28 01:59:10;;;;;;;10.55;7.10;;;;;;;;;;2083749;28;20547;-78
2023/09/28 02:00:30;;;;;;;9.98;7.03;;;;;;;;;;2085083;28;20029;-78
2023/09/28 02:01:51;;;;;;;12.25;7.32;;;;;;;;;;2088104;28;20029;-78
2023/09/28 02:03:14;;;;;;;9.73;6.47;;;;;;;;;;2097281;28;20035;-78
2023/09/28 02:04:38;;;;;;;13.70;7.93;;;;;;;;;;2087623;28;20112;-78
2023/09/28 02:05:59;;;;;;;10.73;7.70;;;;;;;;;;2087003;28;20033;-76
2023/09/28 02:07:20;;;;;;;8.55;6.28;;;;;;;;;;2096220;28;20021;-79
2023/09/28 02:08:41;;;;;;;13.15;7.55;;;;;;;;;;2095406;28;20056;-78
2023/09/28 02:10:03;;;;;;;9.60;6.53;;;;;;;;;;2095154;28;20499;-78
2023/09/28 02:11:24;;;;;;;12.52;7.55;;;;;;;;;;2088234;28;20107;-78
2023/09/28 02:12:45;;;;;;;14.30;7.80;;;;;;;;;;2094878;28;20039;-78
2023/09/28 02:14:06;;;;;;;10.80;7.13;;;;;;;;;;2094536;28;20028;-77
2023/09/28 02:15:27;;;;;;;9.88;6.20;;;;;;;;;;2087622;28;20603;-79
2023/09/28 02:16:48;;;;;;;12.80;6.63;;;;;;;;;;2093552;28;20415;-79
2023/09/28 02:18:08;;;;;;;9.20;6.57;;;;;;;;;;2087769;28;20420;-76
2023/09/28 02:19:29;;;;;;;10.93;7.47;;;;;;;;;;2091022;28;20029;-77
2023/09/28 02:20:50;;;;;;;10.13;6.93;;;;;;;;;;2096890;28;20051;-77
2023/09/28 02:22:11;;;;;;;10.95;7.00;;;;;;;;;;2081734;28;20092;-78
2023/09/28 02:23:32;;;;;;;11.10;6.10;;;;;;;;;;2087436;28;20052;-77
2023/09/28 02:24:53;;;;;;;11.15;7.03;;;;;;;;;;2087962;28;20025;-77
2023/09/28 02:26:14;;;;;;;13.85;7.40;;;;;;;;;;2092648;28;20037;-77
2023/09/28 02:27:36;;;;;;;9.57;6.90;;;;;;;;;;2097593;28;20074;-77
2023/09/28 02:28:57;;;;;;;10.15;7.45;;;;;;;;;;2097078;28;20116;-78
2023/09/28 02:30:19;;;;;;;8.07;6.35;;;;;;;;;;2089366;28;20029;-78
2023/09/28 02:31:43;;;;;;;14.02;7.50;;;;;;;;;;2088007;28;20511;-78
2023/09/28 02:33:06;;;;;;;8.45;6.30;;;;;;;;;;2102567;28;20036;-77
2023/09/28 02:34:28;;;;;;;10.32;6.95;;;;;;;;;;2098409;28;20033;-78
2023/09/28 02:35:48;;;;;;;15.18;7.82;;;;;;;;;;2096262;28;20443;-78
2023/09/28 02:37:09;;;;;;;10.75;7.05;;;;;;;;;;2087282;28;20018;-78
2023/09/28 02:38:30;;;;;;;10.50;7.10;;;;;;;;;;2086935;28;20036;-77
2023/09/28 02:39:51;;;;;;;9.57;6.38;;;;;;;;;;2088210;28;20040;-78
2023/09/28 02:41:16;;;;;;;8.20;6.32;;;;;;;;;;2093788;28;20040;-78
2023/09/28 02:42:36;;;;;;;10.32;6.45;;;;;;;;;;2098429;28;20031;-79
2023/09/28 02:43:57;;;;;;;12.45;8.00;;;;;;;;;;2098129;28;20403;-77
2023/09/28 02:45:18;;;;;;;11.02;6.22;;;;;;;;;;2087687;28;20029;-78
2023/09/28 02:46:40;;;;;;;10.77;8.02;;;;;;;;;;2094861;28;20017;-78
2023/09/28 02:48:01;;;;;;;10.35;6.60;;;;;;;;;;2082744;28;20022;-77
2023/09/28 02:49:21;;;;;;;11.40;6.60;;;;;;;;;;2086098;28;20033;-77
2023/09/28 02:50:43;;;;;;;13.85;7.22;;;;;;;;;;2087853;28;20028;-73
2023/09/28 02:52:06;;;;;;;11.15;7.60;;;;;;;;;;2081314;28;20038;-74
2023/09/28 02:53:27;;;;;;;9.55;6.50;;;;;;;;;;2079433;28;20041;-74
2023/09/28 02:54:48;;;;;;;10.98;7.60;;;;;;;;;;2094232;28;20082;-73
2023/09/28 02:56:09;;;;;;;10.32;6.85;;;;;;;;;;2095658;28;20033;-74
2023/09/28 02:57:30;;;;;;;10.90;6.78;;;;;;;;;;2097865;28;20058;-74
2023/09/28 02:58:51;;;;;;;10.02;7.10;;;;;;;;;;2088386;28;20048;-74
2023/09/28 03:00:33;;;;;;;13.27;7.55;;;;;;;;;;2090122;28;20033;-74
2023/09/28 03:01:54;;;;;;;9.80;6.93;;;;;;;;;;2090633;28;20025;-74
2023/09/28 03:03:15;;;;;;;11.90;7.43;;;;;;;;;;2089646;28;20372;-74
2023/09/28 03:04:36;;;;;;;13.60;7.50;;;;;;;;;;2096083;28;20024;-74
2023/09/28 03:05:58;;;;;;;14.25;8.10;;;;;;;;;;2097872;28;20024;-74
2023/09/28 03:07:18;;;;;;;;;;;;;;;;;;2098722;28;20029;-74
2023/09/28 03:08:39;;;;;;;12.40;7.90;;;;;;;;;;2096849;28;20202;-74
2023/09/28 03:10:02;;;;;;;8.95;6.95;;;;;;;;;;2088933;28;20456;-74
2023/09/28 03:11:23;;;;;;;10.48;7.30;;;;;;;;;;2089310;28;20392;-74
2023/09/28 03:12:46;;;;;;;10.18;6.90;;;;;;;;;;2095021;28;20033;-74
2023/09/28 03:14:07;;;;;;;13.65;8.63;;;;;;;;;;2097801;28;20035;-73
2023/09/28 03:15:28;;;;;;;9.77;6.53;;;;;;;;;;2089123;28;20025;-73
2023/09/28 03:16:49;;;;;;;9.18;6.80;;;;;;;;;;2086566;28;20029;-75
2023/09/28 03:18:10;;;;;;;10.90;8.15;;;;;;;;;;2089832;28;20040;-74
2023/09/28 03:19:31;;;;;;;12.77;7.55;;;;;;;;;;2085589;28;20029;-74
2023/09/28 03:20:53;;;;;;;11.82;7.20;;;;;;;;;;2095218;28;20035;-74
2023/09/28 03:22:14;;;;;;;11.35;7.57;;;;;;;;;;2097559;28;20028;-74
2023/09/28 03:23:35;;;;;;;14.18;8.07;;;;;;;;;;2097949;28;20384;-75
2023/09/28 03:24:56;;;;;;;10.20;7.05;;;;;;;;;;2097607;28;20028;-74
2023/09/28 03:26:17;;;;;;;11.35;8.05;;;;;;;;;;2094755;28;20024;-74
2023/09/28 03:27:39;;;;;;;12.50;7.65;;;;;;;;;;2096730;28;20051;-74
2023/09/28 03:28:59;;;;;;;;;;;;;;;;;;2091093;28;20052;-74
2023/09/28 03:30:21;;;;;;;13.10;7.53;;;;;;;;;;2094143;28;19905;-74
2023/09/28 03:31:42;;;;;;;11.32;7.53;;;;;;;;;;2089376;28;20056;-74
2023/09/28 03:33:03;;;;;;;15.10;8.32;;;;;;;;;;2089004;28;20100;-73
2023/09/28 03:34:24;;;;;;;9.02;6.72;;;;;;;;;;2093831;28;20031;-74
2023/09/28 03:35:46;;;;;;;11.02;7.35;;;;;;;;;;2092755;28;20408;-74
2023/09/28 03:37:08;;;;;;;12.93;6.95;;;;;;;;;;2082270;28;20029;-74
2023/09/28 03:38:28;;;;;;;10.82;7.38;;;;;;;;;;2089087;28;20381;-74
2023/09/28 03:39:50;;;;;;;10.10;8.02;;;;;;;;;;2087888;28;20033;-75
2023/09/28 03:41:11;;;;;;;12.40;7.33;;;;;;;;;;2089245;28;20033;-74
2023/09/28 03:42:32;;;;;;;8.88;6.60;;;;;;;;;;2092670;28;20028;-75
2023/09/28 03:43:53;;;;;;;11.95;8.48;;;;;;;;;;2091894;28;20381;-74
2023/09/28 03:45:15;;;;;;;11.95;7.80;;;;;;;;;;2097929;28;20084;-75
2023/09/28 03:46:36;;;;;;;8.82;6.75;;;;;;;;;;2088626;28;20029;-75
2023/09/28 03:47:57;;;;;;;16.45;7.53;;;;;;;;;;2095024;28;20029;-75
2023/09/28 03:49:18;;;;;;;10.35;7.05;;;;;;;;;;2095660;28;20492;-75
2023/09/28 03:50:39;;;;;;;11.57;6.68;;;;;;;;;;2088575;28;20079;-75
2023/09/28 03:52:02;;;;;;;14.23;7.63;;;;;;;;;;2093904;28;20445;-75
2023/09/28 03:53:23;;;;;;;13.95;8.02;;;;;;;;;;2097496;28;20060;-75
2023/09/28 03:54:44;;;;;;;11.77;7.18;;;;;;;;;;2097011;28;20024;-75
2023/09/28 03:56:05;;;;;;;11.32;6.82;;;;;;;;;;2096233;28;20033;-75
2023/09/28 03:57:25;;;;;;;14.88;7.47;;;;;;;;;;2089922;28;20485;-75
2023/09/28 03:58:46;;;;;;;13.80;7.75;;;;;;;;;;2093752;28;20032;-75
2023/09/28 04:00:12;;;;;;;9.82;7.05;;;;;;;;;;2095357;28;20488;-75
2023/09/28 04:01:33;;;;;;;14.82;7.00;;;;;;;;;;2095100;28;20032;-72
2023/09/28 04:02:54;;;;;;;14.15;6.70;;;;;;;;;;2089162;28;20032;-72
2023/09/28 04:04:15;;;;;;;13.15;7.43;;;;;;;;;;2094008;28;20047;-72
2023/09/28 04:05:36;;;;;;;10.15;6.82;;;;;;;;;;2094364;28;20028;-73
2023/09/28 04:06:57;;;;;;;11.73;7.60;;;;;;;;;;2086312;28;20033;-69
2023/09/28 04:08:18;;;;;;;12.53;6.60;;;;;;;;;;2091133;28;20040;-69
2023/09/28 04:09:39;;;;;;;10.73;7.07;;;;;;;;;;2095722;28;20024;-72
2023/09/28 04:11:00;;;;;;;11.13;7.05;;;;;;;;;;2084778;28;20045;-69
2023/09/28 04:12:21;;;;;;;18.15;7.72;;;;;;;;;;2086268;28;20048;-72
2023/09/28 04:13:42;;;;;;;13.45;7.43;;;;;;;;;;2101777;28;20032;-72
2023/09/28 04:15:03;;;;;;;12.70;7.22;;;;;;;;;;2098408;28;20438;-71
2023/09/28 04:16:24;;;;;;;14.13;7.43;;;;;;;;;;2088263;28;20495;-72
2023/09/28 04:17:45;;;;;;;11.10;7.38;;;;;;;;;;2087560;28;20055;-71
2023/09/28 04:19:06;;;;;;;11.18;7.38;;;;;;;;;;2083597;28;20059;-71
2023/09/28 04:20:27;;;;;;;12.98;7.32;;;;;;;;;;2082072;28;20033;-72
2023/09/28 04:21:48;;;;;;;10.07;7.05;;;;;;;;;;2086064;28;20040;-72
2023/09/28 04:23:09;;;;;;;15.20;7.72;;;;;;;;;;2088897;28;20029;-72
2023/09/28 04:24:30;;;;;;;13.20;8.18;;;;;;;;;;2085666;28;20029;-71
2023/09/28 04:25:51;;;;;;;11.32;7.78;;;;;;;;;;2094193;28;20028;-72
2023/09/28 04:27:12;;;;;;;13.32;7.25;;;;;;;;;;2088423;28;20041;-72
2023/09/28 04:28:33;;;;;;;11.57;7.38;;;;;;;;;;2077534;28;20093;-72
2023/09/28 04:29:54;;;;;;;10.98;6.75;;;;;;;;;;2097261;28;20037;-72
2023/09/28 04:31:15;;;;;;;10.45;7.40;;;;;;;;;;2103070;28;20043;-72
2023/09/28 04:32:36;;;;;;;14.05;7.88;;;;;;;;;;2099895;28;20032;-73
2023/09/28 04:33:57;;;;;;;13.25;8.02;;;;;;;;;;2095868;28;20090;-72
2023/09/28 04:35:18;;;;;;;15.23;8.27;;;;;;;;;;2094565;28;20040;-72
2023/09/28 04:36:40;;;;;;;13.82;7.68;;;;;;;;;;2093082;28;20495;-72
2023/09/28 04:38:02;;;;;;;13.77;7.67;;;;;;;;;;2095655;28;20032;-72
2023/09/28 04:39:26;;;;;;;15.07;8.98;;;;;;;;;;2091599;28;20426;-73
2023/09/28 04:40:47;;;;;;;13.10;8.70;;;;;;;;;;2098890;28;20028;-74
2023/09/28 04:42:08;;;;;;;11.48;7.97;;;;;;;;;;2096787;28;20025;-73
2023/09/28 04:43:29;;;;;;;13.13;8.10;;;;;;;;;;2095946;28;20555;-73
2023/09/28 04:44:50;;;;;;;11.93;7.47;;;;;;;;;;2107229;28;20097;-70
2023/09/28 04:46:11;;;;;;;13.68;7.85;;;;;;;;;;2097936;28;20020;-71
2023/09/28 04:47:32;;;;;;;13.77;7.68;;;;;;;;;;2097614;28;20016;-70
2023/09/28 04:48:53;;;;;;;14.35;7.88;;;;;;;;;;2093148;28;20025;-71
2023/09/28 04:50:14;;;;;;;14.15;8.13;;;;;;;;;;2096685;28;20090;-71
2023/09/28 04:51:35;;;;;;;14.10;8.73;;;;;;;;;;2088436;28;20037;-71
2023/09/28 04:52:56;;;;;;;13.40;8.38;;;;;;;;;;2095803;28;20397;-71
2023/09/28 04:54:17;;;;;;;14.55;8.45;;;;;;;;;;2097039;28;20082;-71
2023/09/28 04:55:38;;;;;;;16.52;8.32;;;;;;;;;;2098956;28;20024;-71
2023/09/28 04:56:59;;;;;;;12.40;8.07;;;;;;;;;;2089028;28;20400;-72
2023/09/28 04:58:20;;;;;;;13.85;7.88;;;;;;;;;;2102400;28;20417;-71
2023/09/28 04:59:41;;;;;;;11.32;7.80;;;;;;;;;;2099017;28;20036;-71
2023/09/28 05:01:02;;;;;;;14.77;8.63;;;;;;;;;;2092776;28;20131;-71
2023/09/28 05:02:23;;;;;;;13.75;7.70;;;;;;;;;;2096991;28;20450;-72
2023/09/28 05:03:44;;;;;;;12.32;8.55;;;;;;;;;;2097567;28;20035;-71
2023/09/28 05:05:06;;;;;;;14.60;8.35;;;;;;;;;;2094757;28;20024;-71
2023/09/28 05:06:27;;;;;;;31.20;10.88;;;;;;;;;;2096530;28;20028;-72
2023/09/28 05:07:48;;;;;;;13.80;7.90;;;;;;;;;;2096346;28;20484;-71
2023/09/28 05:09:09;;;;;;;13.43;8.35;;;;;;;;;;2089311;28;20032;-71
2023/09/28 05:10:30;;;;;;;13.68;8.90;;;;;;;;;;2095269;28;20035;-73
2023/09/28 05:11:53;;;;;;;13.70;7.25;;;;;;;;;;2092559;28;20032;-79
2023/09/28 05:13:14;;;;;;;13.93;7.55;;;;;;;;;;2098100;28;20126;-80
2023/09/28 05:14:35;;;;;;;13.73;8.25;;;;;;;;;;2093435;28;20082;-78
2023/09/28 05:15:56;;;;;;;13.70;8.68;;;;;;;;;;2090711;28;20078;-78
2023/09/28 05:17:16;;;;;;;15.32;7.93;;;;;;;;;;2096520;28;20028;-78
2023/09/28 05:18:37;;;;;;;15.13;8.38;;;;;;;;;;2095833;28;20106;-78
2023/09/28 05:19:58;;;;;;;14.65;8.38;;;;;;;;;;2098154;28;20039;-79
2023/09/28 05:21:19;;;;;;;13.38;8.45;;;;;;;;;;2095578;28;20411;-77
2023/09/28 05:22:40;;;;;;;12.68;7.95;;;;;;;;;;2100257;28;20031;-78
2023/09/28 05:24:01;;;;;;;11.48;8.20;;;;;;;;;;2098439;28;20025;-78
2023/09/28 05:25:22;;;;;;;15.40;9.00;;;;;;;;;;2096482;28;20048;-76
2023/09/28 05:26:43;;;;;;;12.55;8.40;;;;;;;;;;2094933;28;20080;-78
2023/09/28 05:28:04;;;;;;;16.85;8.90;;;;;;;;;;2095561;28;20051;-76
2023/09/28 05:29:27;;;;;;;15.43;9.25;;;;;;;;;;2091821;28;20568;-79
2023/09/28 05:30:48;;;;;;;14.10;8.60;;;;;;;;;;2098104;28;20029;-78
2023/09/28 05:32:09;;;;;;;17.08;9.30;;;;;;;;;;2098732;28;20055;-78
2023/09/28 05:33:30;;;;;;;17.63;9.75;;;;;;;;;;2089029;28;20440;-78
2023/09/28 05:34:51;;;;;;;16.10;9.30;;;;;;;;;;2100948;28;20032;-78
2023/09/28 05:36:12;;;;;;;14.80;9.25;;;;;;;;;;2093117;28;20033;-78
2023/09/28 05:37:33;;;;;;;14.95;9.50;;;;;;;;;;2094942;28;20027;-78
2023/09/28 05:38:53;;;;;;;15.60;9.00;;;;;;;;;;2088776;28;20055;-78
2023/09/28 05:40:15;;;;;;;17.13;9.23;;;;;;;;;;2092468;28;20431;-79
2023/09/28 05:41:36;;;;;;;13.35;8.60;;;;;;;;;;2095492;28;20028;-78
2023/09/28 05:42:57;;;;;;;15.55;8.95;;;;;;;;;;2091917;28;20033;-78
2023/09/28 05:44:18;;;;;;;13.20;8.63;;;;;;;;;;2096920;28;20040;-79
2023/09/28 05:45:39;;;;;;;22.30;10.02;;;;;;;;;;2096436;28;20020;-78
2023/09/28 05:47:00;;;;;;;15.60;9.13;;;;;;;;;;2095469;28;20028;-78
2023/09/28 05:48:21;;;;;;;16.63;9.48;;;;;;;;;;2092281;28;20024;-78
2023/09/28 05:49:42;;;;;;;16.10;9.65;;;;;;;;;;2094242;28;20028;-77
2023/09/28 05:51:03;;;;;;;21.35;9.10;;;;;;;;;;2095582;28;20037;-75
2023/09/28 05:52:24;;;;;;;19.88;9.20;;;;;;;;;;2095093;28;20020;-75
2023/09/28 05:53:45;;;;;;;14.52;9.27;;;;;;;;;;2095034;28;20895;-75
2023/09/28 05:55:06;;;;;;;19.20;8.38;;;;;;;;;;2096067;28;20036;-75
2023/09/28 05:56:27;;;;;;;15.38;8.73;;;;;;;;;;2092924;28;20025;-76
2023/09/28 05:57:48;;;;;;;12.80;8.05;;;;;;;;;;2108666;28;20476;-76
2023/09/28 05:59:09;;;;;;;17.95;10.65;;;;;;;;;;2092724;28;20400;-75
2023/09/28 06:00:30;;;;;;;18.35;8.73;;;;;;;;;;2092977;28;20032;-74
2023/09/28 06:01:50;;;;;;;19.40;8.57;;;;;;;;;;2092757;28;20037;-75
2023/09/28 06:03:12;;;;;;;14.90;9.07;;;;;;;;;;2091993;28;20029;-74
2023/09/28 06:04:33;;;;;;;18.55;9.00;;;;;;;;;;2093670;28;20028;-75
2023/09/28 06:05:55;;;;;;;14.07;9.25;;;;;;;;;;2088882;28;20040;-73
2023/09/28 06:07:15;;;;;;;18.50;9.55;;;;;;;;;;2090243;28;20044;-75
2023/09/28 06:08:36;;;;;;;16.77;8.98;;;;;;;;;;2089305;28;20040;-76
2023/09/28 06:09:57;;;;;;;18.73;8.18;;;;;;;;;;2093813;28;20510;-75
2023/09/28 06:11:19;;;;;;;18.15;9.73;;;;;;;;;;2093633;28;20036;-76
2023/09/28 06:12:40;;;;;;;;;;;;;;;;;;2095187;28;20490;-75
2023/09/28 06:14:02;;;;;;;16.65;8.73;;;;;;;;;;2090271;28;19970;-75
2023/09/28 06:15:23;;;;;;;18.58;8.45;;;;;;;;;;2097838;28;20090;-75
2023/09/28 06:16:44;;;;;;;20.08;8.95;;;;;;;;;;2094750;28;20059;-76
2023/09/28 06:18:05;;;;;;;30.83;9.43;;;;;;;;;;2092059;28;20391;-76
2023/09/28 06:19:26;;;;;;;18.20;8.90;;;;;;;;;;2091087;28;20089;-76
2023/09/28 06:20:47;;;;;;;17.38;10.18;;;;;;;;;;2092941;28;20043;-73
2023/09/28 06:22:09;;;;;;;18.58;10.35;;;;;;;;;;2093956;28;20045;-74
2023/09/28 06:23:30;;;;;;;17.65;8.90;;;;;;;;;;2093951;28;20025;-72
2023/09/28 06:24:51;;;;;;;15.85;9.10;;;;;;;;;;2093219;28;20058;-72
2023/09/28 06:26:12;;;;;;;17.65;9.48;;;;;;;;;;2092634;28;20021;-72
2023/09/28 06:27:33;;;;;;;17.20;9.10;;;;;;;;;;2094724;28;20025;-72
2023/09/28 06:28:53;;;;;;;18.80;11.90;;;;;;;;;;2093676;28;20028;-73
2023/09/28 06:30:14;;;;;;;16.67;8.85;;;;;;;;;;2093088;28;20041;-72
2023/09/28 06:31:36;;;;;;;20.73;9.93;;;;;;;;;;2093646;28;20411;-72
2023/09/28 06:32:57;;;;;;;18.10;10.37;;;;;;;;;;2087947;28;20458;-72
2023/09/28 06:34:18;;;;;;;15.70;8.95;;;;;;;;;;2096082;28;20090;-73
2023/09/28 06:35:38;;;;;;;15.60;9.10;;;;;;;;;;2094797;28;20519;-72
2023/09/28 06:36:59;;;;;;;18.55;9.00;;;;;;;;;;2093472;28;20032;-72
2023/09/28 06:38:20;;;;;;;17.83;8.98;;;;;;;;;;2093904;28;20025;-70
2023/09/28 06:39:42;;;;;;;16.33;8.90;;;;;;;;;;2095797;28;20040;-72
2023/09/28 06:41:02;;;;;;;19.70;9.55;;;;;;;;;;2089789;28;20033;-71
2023/09/28 06:42:23;;;;;;;20.60;9.80;;;;;;;;;;2094533;28;20078;-71
2023/09/28 06:43:44;;;;;;;19.40;9.55;;;;;;;;;;2094477;28;20016;-72
2023/09/28 06:45:06;;;;;;;16.70;9.10;;;;;;;;;;2092344;28;20389;-72
2023/09/28 06:46:27;;;;;;;;;;;;;;;;;;2103690;28;20032;-72
2023/09/28 06:47:48;;;;;;;18.65;8.77;;;;;;;;;;2098414;28;19955;-72
2023/09/28 06:49:11;;;;;;;16.65;8.73;;;;;;;;;;2095383;28;20024;-70
2023/09/28 06:50:32;;;;;;;19.02;8.73;;;;;;;;;;2094285;28;20040;-71
2023/09/28 06:51:53;;;;;;;18.73;9.45;;;;;;;;;;2090854;28;20399;-70
2023/09/28 06:53:15;;;;;;;18.58;8.35;;;;;;;;;;2094498;28;20372;-70
2023/09/28 06:54:38;;;;;;;20.95;9.20;;;;;;;;;;2096235;28;20036;-71
2023/09/28 06:56:02;;;;;;;;;;;;;;;;;;2096919;28;20032;-72
2023/09/28 06:57:23;;;;;;;21.05;10.00;;;;;;;;;;2095282;28;20304;-71
2023/09/28 06:58:44;;;;;;;17.50;8.57;;;;;;;;;;2096911;28;20029;-72
2023/09/28 07:00:09;;;;;;;15.48;7.65;;;;;;;;;;2093787;28;20028;-71
2023/09/28 07:01:30;;;;;;;17.65;8.85;;;;;;;;;;2095723;28;20066;-72
2023/09/28 07:02:51;;;;;;;20.48;8.23;;;;;;;;;;2095755;28;20024;-73
2023/09/28 07:04:12;;;;;;;21.17;8.95;;;;;;;;;;2096204;28;20488;-71
2023/09/28 07:05:35;;;;;;;13.00;7.72;;;;;;;;;;2103429;28;20507;-71
2023/09/28 07:06:56;;;;;;;17.65;7.43;;;;;;;;;;2094818;28;20029;-72
2023/09/28 07:08:17;;;;;;;17.23;7.88;;;;;;;;;;2095655;28;20025;-73
2023/09/28 07:09:38;;;;;;;19.75;7.70;;;;;;;;;;2097059;28;20032;-71
2023/09/28 07:10:59;;;;;;;17.25;7.15;;;;;;;;;;2096006;28;20025;-72
2023/09/28 07:12:20;;;;;;;20.50;7.70;;;;;;;;;;2096206;28;20107;-71
2023/09/28 07:13:41;;;;;;;17.37;7.47;;;;;;;;;;2096678;28;20395;-71
2023/09/28 07:15:06;;;;;;;20.08;7.18;;;;;;;;;;2102955;28;20040;-72
2023/09/28 07:16:27;;;;;;;16.88;7.72;;;;;;;;;;2093260;28;20032;-72
2023/09/28 07:17:48;;;;;;;16.45;7.47;;;;;;;;;;2096751;28;20024;-71
2023/09/28 07:19:09;;;;;;;17.35;7.28;;;;;;;;;;2097115;28;20028;-72
2023/09/28 07:20:30;;;;;;;15.82;6.03;;;;;;;;;;2103443;28;20043;-73
2023/09/28 07:21:51;;;;;;;16.73;6.32;;;;;;;;;;2099427;28;20048;-72
2023/09/28 07:23:12;;;;;;;19.95;6.50;;;;;;;;;;2094857;28;20087;-72
2023/09/28 07:24:33;;;;;;;20.35;6.97;;;;;;;;;;2096160;28;20488;-73
2023/09/28 07:25:55;;;;;;;19.80;6.93;;;;;;;;;;2097578;28;20088;-73
2023/09/28 07:27:16;;;;;;;20.73;5.90;;;;;;;;;;2095710;28;20032;-74
2023/09/28 07:28:37;;;;;;;19.33;6.20;;;;;;;;;;2096453;28;20024;-73
2023/09/28 07:29:59;;;;;;;18.13;5.63;;;;;;;;;;2095201;28;20488;-74
2023/09/28 07:31:21;;;;;;;17.90;5.93;;;;;;;;;;2104330;28;20403;-76
2023/09/28 07:32:42;;;;;;;22.13;6.57;;;;;;;;;;2098346;28;20030;-76
2023/09/28 07:34:03;;;;;;;20.48;6.18;;;;;;;;;;2089125;28;20040;-77
2023/09/28 07:35:24;;;;;;;13.60;5.82;;;;;;;;;;2088179;28;20036;-75
2023/09/28 07:36:45;;;;;;;18.58;5.40;;;;;;;;;;2095110;28;20047;-76
2023/09/28 07:38:06;;;;;;;19.88;5.38;;;;;;;;;;2091910;28;20028;-76
2023/09/28 07:39:27;;;;;;;25.77;6.07;;;;;;;;;;2097049;28;20053;-76
2023/09/28 07:40:48;;;;;;;21.73;5.57;;;;;;;;;;2096880;28;20158;-76
2023/09/28 07:42:09;;;;;;;19.45;5.72;;;;;;;;;;2097273;28;20559;-76
2023/09/28 07:43:30;;;;;;;19.75;4.97;;;;;;;;;;2096508;28;20032;-76
2023/09/28 07:44:51;;;;;;;18.17;5.70;;;;;;;;;;2098054;28;20021;-76
2023/09/28 07:46:13;;;;;;;21.77;5.65;;;;;;;;;;2096241;28;20040;-76
2023/09/28 07:47:34;;;;;;;;;;;;;;;;;;2095676;28;20040;-76
2023/09/28 07:48:56;;;;;;;19.90;5.80;;;;;;;;;;2090755;28;19904;-76
2023/09/28 07:50:17;;;;;;;22.38;6.60;;;;;;;;;;2096822;28;20060;-76
2023/09/28 07:51:41;;;;;;;22.93;6.10;;;;;;;;;;2095771;28;20017;-76
2023/09/28 07:53:02;;;;;;;21.80;5.68;;;;;;;;;;2093491;28;20425;-77
2023/09/28 07:54:22;;;;;;;23.08;5.18;;;;;;;;;;2096878;28;20025;-76
2023/09/28 07:55:44;;;;;;;19.58;5.18;;;;;;;;;;2097050;28;20029;-76
2023/09/28 07:57:05;;;;;;;27.25;5.93;;;;;;;;;;2095621;28;20047;-76
2023/09/28 07:58:26;;;;;;;19.08;4.95;;;;;;;;;;2097014;28;20037;-76
2023/09/28 07:59:46;;;;;;;29.23;6.38;;;;;;;;;;2095178;28;20502;-76
2023/09/28 08:01:09;;;;;;;23.75;5.60;;;;;;;;;;2096300;28;20032;-76
2023/09/28 08:02:30;;;;;;;21.85;5.72;;;;;;;;;;2091526;28;20025;-76